Time;durP1;ratioP1;P1;durP2;ratioP2;P2;SDS_P1;SDS_P2;PMS_P1;PMS_P2;Temp;Humidity;BMP_temperature;BMP_pressure;BME280_temperature;BME280_humidity;BME280_pressure;Samples;Min_cycle;Max_cycle;Signal;HPM_P1;HPM_P2
2023/08/18 00:00:32;;;;;;;3.00;2.80;;;27.10;63.90;;;;;;4992280;28;20690;-72
2023/08/18 00:02:58;;;;;;;2.83;2.63;;;27.10;63.90;;;;;;4997724;28;20211;-73
2023/08/18 00:05:26;;;;;;;3.20;3.00;;;27.10;63.90;;;;;;5012253;28;20180;-73
2023/08/18 00:07:55;;;;;;;3.10;2.80;;;27.10;63.90;;;;;;5012131;28;20172;-73
2023/08/18 00:10:20;;;;;;;3.00;2.80;;;27.10;64.00;;;;;;5012120;28;20443;-73
2023/08/18 00:12:46;;;;;;;3.70;2.70;;;27.10;63.90;;;;;;5012085;28;20558;-72
2023/08/18 00:15:11;;;;;;;3.73;2.70;;;27.10;63.90;;;;;;5011984;28;20283;-74
2023/08/18 00:17:37;;;;;;;2.87;2.67;;;27.10;64.00;;;;;;5012095;28;20663;-74
2023/08/18 00:20:03;;;;;;;4.37;2.50;;;27.10;63.90;;;;;;5012020;28;20188;-73
2023/08/18 00:22:30;;;;;;;3.13;2.90;;;27.00;63.80;;;;;;5012043;28;20172;-73
2023/08/18 00:24:56;;;;;;;2.80;2.60;;;27.10;63.90;;;;;;5012049;28;20443;-73
2023/08/18 00:27:22;;;;;;;2.60;2.40;;;27.10;63.90;;;;;;5012126;28;20517;-73
2023/08/18 00:29:47;;;;;;;2.93;2.63;;;27.10;63.90;;;;;;5011897;28;20299;-73
2023/08/18 00:32:13;;;;;;;3.10;2.90;;;27.10;63.90;;;;;;5012051;28;20403;-73
2023/08/18 00:34:39;;;;;;;2.90;2.60;;;27.10;63.90;;;;;;5011851;28;20222;-73
2023/08/18 00:37:04;;;;;;;3.10;2.77;;;27.10;63.90;;;;;;5027194;28;20255;-73
2023/08/18 00:39:30;;;;;;;3.00;2.80;;;27.10;63.90;;;;;;5011834;28;20200;-73
2023/08/18 00:41:56;;;;;;;2.73;2.53;;;27.10;63.90;;;;;;5011914;28;20255;-73
2023/08/18 00:44:21;;;;;;;2.93;2.73;;;27.10;63.90;;;;;;5011872;28;20185;-73
2023/08/18 00:46:47;;;;;;;2.77;2.57;;;27.00;63.80;;;;;;5011979;28;20172;-73
2023/08/18 00:49:15;;;;;;;2.70;2.50;;;27.00;63.80;;;;;;5011849;28;20251;-73
2023/08/18 00:51:41;;;;;;;3.83;2.90;;;27.00;63.80;;;;;;5010455;28;20859;-73
2023/08/18 00:54:08;;;;;;;3.30;3.00;;;27.00;63.80;;;;;;5011745;28;20415;-73
2023/08/18 00:56:34;;;;;;;2.60;2.40;;;27.10;63.90;;;;;;5011720;28;20417;-74
2023/08/18 00:59:01;;;;;;;3.07;2.80;;;27.10;63.90;;;;;;5011824;28;20416;-72
2023/08/18 01:01:26;;;;;;;2.80;2.60;;;27.10;63.90;;;;;;5011576;28;20200;-72
2023/08/18 01:03:53;;;;;;;2.90;2.70;;;27.00;63.80;;;;;;5012476;28;20466;-73
2023/08/18 01:06:19;;;;;;;2.33;2.13;;;27.10;63.90;;;;;;5015220;28;20227;-73
2023/08/18 01:08:44;;;;;;;2.90;2.70;;;27.10;64.70;;;;;;5015201;28;20407;-72
2023/08/18 01:11:42;;;;;;;2.67;2.47;;;27.10;63.90;;;;;;5015096;28;20668;-72
2023/08/18 01:14:29;;;;;;;3.60;3.30;;;27.10;63.90;;;;;;5015077;28;20160;-73
2023/08/18 01:17:06;;;;;;;2.60;2.40;;;27.10;63.90;;;;;;5030241;28;20995;-73
2023/08/18 01:19:32;;;;;;;2.90;2.70;;;27.00;63.90;;;;;;5014949;28;20423;-73
2023/08/18 01:21:58;;;;;;;2.57;2.37;;;27.00;63.90;;;;;;5013864;28;20782;-74
2023/08/18 01:24:24;;;;;;;2.63;2.43;;;27.00;63.80;;;;;;5014850;28;20415;-73
2023/08/18 01:26:52;;;;;;;2.97;2.67;;;27.00;63.80;;;;;;5014894;28;20489;-72
2023/08/18 01:29:20;;;;;;;2.97;2.77;;;27.00;63.80;;;;;;5014774;28;20172;-72
2023/08/18 01:31:47;;;;;;;3.10;2.80;;;27.00;63.80;;;;;;5014895;28;20431;-73
2023/08/18 01:34:17;;;;;;;2.93;2.70;;;27.00;63.80;;;;;;5014531;28;20447;-73
2023/08/18 01:36:45;;;;;;;2.83;2.30;;;27.00;63.80;;;;;;5014594;28;20498;-72
2023/08/18 01:39:13;;;;;;;2.87;2.50;;;27.00;63.80;;;;;;5013311;28;20442;-73
2023/08/18 01:41:41;;;;;;;3.03;2.70;;;27.00;63.80;;;;;;5014467;28;20481;-72
2023/08/18 01:44:07;;;;;;;2.50;2.30;;;27.00;63.80;;;;;;5014474;28;20416;-72
2023/08/18 01:46:32;;;;;;;3.60;2.37;;;27.00;63.70;;;;;;5014446;28;20511;-73
2023/08/18 01:48:58;;;;;;;2.60;2.40;;;27.00;63.70;;;;;;5014413;28;20230;-73
2023/08/18 01:51:23;;;;;;;2.60;2.40;;;27.00;63.70;;;;;;5013043;28;20192;-73
2023/08/18 01:53:49;;;;;;;2.70;2.50;;;27.00;63.70;;;;;;5014287;28;20172;-73
2023/08/18 01:56:15;;;;;;;2.40;2.20;;;27.00;63.70;;;;;;5012933;28;20203;-72
2023/08/18 01:58:41;;;;;;;2.90;2.70;;;27.00;63.70;;;;;;5029549;28;20641;-73
2023/08/18 02:01:06;;;;;;;3.13;2.80;;;27.00;63.80;;;;;;5013974;28;20350;-73
2023/08/18 02:03:32;;;;;;;2.67;2.47;;;27.00;63.80;;;;;;5014149;28;20506;-73
2023/08/18 02:05:58;;;;;;;2.47;2.27;;;27.00;63.70;;;;;;5014126;28;20172;-73
2023/08/18 02:08:24;;;;;;;2.60;2.40;;;27.00;63.80;;;;;;5014262;28;20180;-73
2023/08/18 02:10:50;;;;;;;2.43;2.23;;;27.00;63.70;;;;;;5012577;28;20985;-73
2023/08/18 02:13:16;;;;;;;2.13;2.03;;;27.00;63.70;;;;;;5013917;28;20233;-72
2023/08/18 02:15:47;;;;;;;2.60;2.40;;;27.00;63.70;;;;;;5013691;28;20455;-72
2023/08/18 02:18:13;;;;;;;2.53;2.33;;;27.00;63.70;;;;;;5013897;28;20804;-73
2023/08/18 02:20:38;;;;;;;2.40;2.20;;;27.00;63.70;;;;;;5013832;28;20427;-73
2023/08/18 02:23:05;;;;;;;2.90;2.30;;;27.00;63.70;;;;;;5013850;28;20168;-73
2023/08/18 02:25:30;;;;;;;2.30;2.10;;;27.00;63.70;;;;;;5012947;28;20176;-73
2023/08/18 02:27:56;;;;;;;2.80;2.00;;;27.00;63.70;;;;;;5013651;28;20852;-73
2023/08/18 02:30:22;;;;;;;2.20;2.00;;;27.00;63.70;;;;;;5013766;28;20208;-73
2023/08/18 02:32:47;;;;;;;2.50;2.30;;;27.00;63.70;;;;;;5013633;28;20183;-72
2023/08/18 02:35:13;;;;;;;2.53;2.33;;;27.00;63.70;;;;;;5013457;28;20246;-73
2023/08/18 02:37:39;;;;;;;2.40;2.20;;;27.00;63.70;;;;;;5013621;28;20173;-73
2023/08/18 02:40:06;;;;;;;2.90;2.70;;;27.00;63.70;;;;;;5013341;28;20730;-72
2023/08/18 02:42:33;;;;;;;2.37;2.17;;;27.00;63.70;;;;;;5013400;28;20445;-73
2023/08/18 02:44:59;;;;;;;2.53;2.33;;;27.00;63.70;;;;;;5013261;28;20415;-73
2023/08/18 02:47:25;;;;;;;2.67;2.47;;;27.00;63.70;;;;;;5013335;28;20794;-72
2023/08/18 02:49:51;;;;;;;2.67;2.47;;;27.00;63.70;;;;;;5013270;28;20569;-73
2023/08/18 02:52:16;;;;;;;2.80;2.60;;;27.00;63.70;;;;;;5013512;28;20494;-73
2023/08/18 02:54:42;;;;;;;2.40;2.20;;;27.00;63.70;;;;;;5013224;28;20188;-71
2023/08/18 02:57:08;;;;;;;2.63;2.43;;;27.00;63.70;;;;;;5013421;28;20168;-72
2023/08/18 02:59:33;;;;;;;3.20;2.47;;;27.00;63.70;;;;;;5012958;28;20701;-73
2023/08/18 03:01:59;;;;;;;2.37;2.07;;;27.00;63.70;;;;;;5013058;28;20184;-73
2023/08/18 03:04:25;;;;;;;2.63;2.30;;;27.00;63.70;;;;;;5013087;28;20251;-73
2023/08/18 03:06:50;;;;;;;2.40;2.20;;;27.00;63.70;;;;;;5011748;28;20275;-73
2023/08/18 03:09:16;;;;;;;2.33;2.13;;;27.00;63.70;;;;;;5012873;28;20427;-72
2023/08/18 03:11:42;;;;;;;2.50;2.30;;;27.00;63.70;;;;;;5012860;28;20231;-73
2023/08/18 03:14:08;;;;;;;2.30;2.10;;;27.00;63.70;;;;;;5012674;28;20431;-72
2023/08/18 03:16:34;;;;;;;2.20;2.00;;;27.00;63.70;;;;;;5012767;28;20184;-73
2023/08/18 03:18:59;;;;;;;2.70;2.50;;;27.00;63.60;;;;;;5012786;28;20638;-73
2023/08/18 03:21:28;;;;;;;2.10;1.90;;;27.00;63.70;;;;;;5012953;28;20510;-72
2023/08/18 03:23:53;;;;;;;2.33;2.13;;;27.00;63.70;;;;;;5012793;28;20173;-73
2023/08/18 03:26:19;;;;;;;2.27;2.00;;;27.00;63.70;;;;;;5012117;28;20511;-72
2023/08/18 03:28:44;;;;;;;2.70;2.10;;;27.00;63.70;;;;;;5012620;28;20260;-73
2023/08/18 03:31:10;;;;;;;2.23;2.03;;;27.00;63.60;;;;;;5012734;28;20208;-73
2023/08/18 03:33:36;;;;;;;2.20;2.00;;;27.00;63.60;;;;;;5012625;28;20187;-73
2023/08/18 03:36:02;;;;;;;2.50;2.20;;;27.00;63.60;;;;;;5012453;28;20243;-72
2023/08/18 03:38:29;;;;;;;2.23;2.03;;;27.00;63.60;;;;;;5012492;28;20291;-72
2023/08/18 03:41:04;;;;;;;2.40;2.13;;;27.00;63.60;;;;;;5012310;28;20445;-73
2023/08/18 03:43:31;;;;;;;2.47;1.97;;;27.00;63.60;;;;;;5012400;28;20888;-72
2023/08/18 03:45:59;;;;;;;2.80;2.50;;;27.00;63.70;;;;;;5012457;28;20434;-73
2023/08/18 03:48:25;;;;;;;2.20;2.00;;;27.00;63.60;;;;;;5012442;28;20426;-73
2023/08/18 03:50:50;;;;;;;2.23;2.13;;;27.00;63.60;;;;;;5012472;28;20470;-72
2023/08/18 03:53:16;;;;;;;2.73;2.10;;;26.90;63.60;;;;;;5012326;28;20657;-72
2023/08/18 03:55:41;;;;;;;2.23;2.00;;;27.00;63.60;;;;;;5012486;28;20295;-73
2023/08/18 03:58:07;;;;;;;2.20;2.00;;;27.00;63.60;;;;;;5012241;28;20180;-72
2023/08/18 04:00:32;;;;;;;2.37;2.17;;;26.90;63.50;;;;;;5012155;28;20215;-72
2023/08/18 04:02:58;;;;;;;2.20;2.00;;;27.00;63.60;;;;;;5012523;28;20687;-73
2023/08/18 04:05:23;;;;;;;1.90;1.80;;;27.00;63.60;;;;;;5010925;28;20275;-73
2023/08/18 04:07:50;;;;;;;2.53;2.33;;;27.00;63.60;;;;;;5012157;28;20177;-73
2023/08/18 04:10:16;;;;;;;2.40;2.20;;;27.00;63.60;;;;;;5011987;28;20616;-73
2023/08/18 04:12:42;;;;;;;2.20;2.00;;;27.00;63.70;;;;;;5012521;28;20419;-72
2023/08/18 04:15:07;;;;;;;2.40;2.20;;;27.00;63.60;;;;;;5012070;28;20203;-73
2023/08/18 04:17:33;;;;;;;2.37;1.70;;;27.00;63.60;;;;;;5010882;28;20279;-73
2023/08/18 04:19:59;;;;;;;2.17;1.60;;;27.00;63.60;;;;;;5012291;28;20275;-73
2023/08/18 04:22:24;;;;;;;2.00;1.80;;;26.90;63.50;;;;;;5012021;28;20259;-73
2023/08/18 04:24:50;;;;;;;1.90;1.70;;;26.90;63.50;;;;;;5012016;28;20176;-73
2023/08/18 04:27:16;;;;;;;2.10;1.90;;;27.00;63.60;;;;;;5011979;28;20176;-73
2023/08/18 04:29:41;;;;;;;2.00;1.80;;;26.90;63.50;;;;;;5011994;28;20821;-73
2023/08/18 04:32:07;;;;;;;2.40;2.20;;;27.00;63.60;;;;;;5012036;28;20183;-72
2023/08/18 04:34:33;;;;;;;2.40;2.20;;;26.90;63.50;;;;;;5011880;28;20739;-72
2023/08/18 04:36:58;;;;;;;1.80;1.67;;;27.00;63.60;;;;;;5011898;28;20252;-71
2023/08/18 04:39:24;;;;;;;2.20;2.00;;;27.00;63.60;;;;;;5013967;28;20505;-74
2023/08/18 04:41:49;;;;;;;1.90;1.70;;;27.00;63.60;;;;;;5015645;28;20192;-74
2023/08/18 04:44:15;;;;;;;1.83;1.73;;;27.00;63.60;;;;;;5015651;28;20171;-74
2023/08/18 04:46:40;;;;;;;2.03;1.83;;;27.00;63.60;;;;;;5015681;28;20230;-74
2023/08/18 04:49:06;;;;;;;2.20;2.00;;;27.00;63.50;;;;;;5015547;28;20175;-74
2023/08/18 04:51:32;;;;;;;2.00;1.80;;;27.00;63.60;;;;;;5015481;28;20271;-72
2023/08/18 04:53:57;;;;;;;1.70;1.60;;;26.90;63.40;;;;;;5014128;28;20183;-73
2023/08/18 04:56:23;;;;;;;2.17;1.97;;;27.00;63.50;;;;;;5015509;28;20168;-73
2023/08/18 04:58:48;;;;;;;1.83;1.70;;;27.00;63.50;;;;;;5015432;28;20181;-73
2023/08/18 05:01:14;;;;;;;2.23;2.03;;;27.00;63.60;;;;;;5015195;28;20760;-73
2023/08/18 05:03:40;;;;;;;2.20;2.00;;;27.00;63.50;;;;;;5015419;28;20196;-73
2023/08/18 05:06:12;;;;;;;2.27;2.07;;;27.00;63.50;;;;;;5015262;28;20447;-73
2023/08/18 05:08:42;;;;;;;1.80;1.70;;;27.00;63.50;;;;;;5015229;28;20244;-72
2023/08/18 05:11:10;;;;;;;2.33;1.70;;;27.00;63.50;;;;;;5015339;28;20796;-73
2023/08/18 05:13:36;;;;;;;2.10;1.90;;;27.00;63.50;;;;;;5015512;28;20419;-73
2023/08/18 05:16:05;;;;;;;1.83;1.67;;;27.00;63.90;;;;;;5015046;28;20447;-73
2023/08/18 05:18:31;;;;;;;2.10;2.00;;;26.90;63.40;;;;;;5015213;28;20424;-73
2023/08/18 05:20:58;;;;;;;2.10;1.90;;;27.00;63.50;;;;;;5013893;28;21147;-73
2023/08/18 05:23:24;;;;;;;1.87;1.77;;;27.00;63.50;;;;;;5015178;28;20419;-73
2023/08/18 05:25:54;;;;;;;1.97;1.77;;;27.00;63.40;;;;;;5014880;28;20450;-73
2023/08/18 05:28:20;;;;;;;1.93;1.80;;;26.90;63.30;;;;;;5014872;28;20403;-73
2023/08/18 05:30:47;;;;;;;1.93;1.80;;;27.00;64.20;;;;;;5014677;28;20431;-73
2023/08/18 05:33:13;;;;;;;2.10;1.90;;;27.00;63.40;;;;;;5014710;28;20411;-73
2023/08/18 05:35:47;;;;;;;1.80;1.70;;;27.00;63.40;;;;;;5014607;28;20473;-73
2023/08/18 05:38:12;;;;;;;1.70;1.50;;;27.00;63.40;;;;;;5011510;28;20459;-72
2023/08/18 05:40:46;;;;;;;2.30;2.10;;;27.00;63.40;;;;;;4995736;28;20844;-73
2023/08/18 05:43:14;;;;;;;1.90;1.70;;;27.00;63.40;;;;;;4995303;28;20169;-72
2023/08/18 05:45:40;;;;;;;2.40;2.20;;;26.90;63.30;;;;;;4994906;28;20423;-72
2023/08/18 05:48:06;;;;;;;2.37;2.17;;;27.00;63.40;;;;;;4996055;28;20470;-73
2023/08/18 05:50:32;;;;;;;3.20;1.87;;;27.00;63.40;;;;;;5004543;28;20458;-72
2023/08/18 05:52:58;;;;;;;2.17;1.70;;;27.00;64.20;;;;;;5002727;28;20424;-73
2023/08/18 05:55:24;;;;;;;1.97;1.70;;;27.00;63.30;;;;;;5004654;28;20447;-72
2023/08/18 05:57:51;;;;;;;2.10;1.90;;;27.00;63.30;;;;;;4999832;28;20649;-72
2023/08/18 06:00:17;;;;;;;1.77;1.67;;;27.00;63.30;;;;;;5002429;28;20815;-72
2023/08/18 06:02:43;;;;;;;2.83;2.13;;;27.00;63.40;;;;;;4994582;28;20435;-72
2023/08/18 06:05:11;;;;;;;2.07;1.83;;;27.00;63.30;;;;;;4994510;28;20177;-72
2023/08/18 06:07:41;;;;;;;2.00;1.80;;;27.00;63.30;;;;;;4994448;28;20201;-72
2023/08/18 06:10:08;;;;;;;1.90;1.50;;;27.00;63.30;;;;;;4994408;28;20436;-72
2023/08/18 06:12:34;;;;;;;2.23;1.90;;;27.00;63.30;;;;;;4994363;28;20413;-72
2023/08/18 06:15:00;;;;;;;1.90;1.80;;;27.00;63.30;;;;;;4994486;28;20976;-72
2023/08/18 06:17:25;;;;;;;2.10;1.70;;;27.00;63.30;;;;;;4994551;28;20538;-71
2023/08/18 06:19:52;;;;;;;2.10;1.93;;;27.00;63.30;;;;;;5009197;28;20436;-73
2023/08/18 06:22:18;;;;;;;2.10;1.90;;;27.00;63.30;;;;;;4994164;28;20169;-72
2023/08/18 06:24:44;;;;;;;2.53;2.33;;;27.00;63.30;;;;;;4994060;28;20786;-72
2023/08/18 06:27:09;;;;;;;2.50;2.30;;;27.00;63.30;;;;;;4994161;28;20180;-71
2023/08/18 06:29:35;;;;;;;2.50;2.00;;;27.00;63.30;;;;;;4994196;28;20185;-73
2023/08/18 06:32:00;;;;;;;2.17;1.97;;;27.00;63.30;;;;;;4993219;28;20184;-72
2023/08/18 06:34:26;;;;;;;4.90;2.30;;;27.00;63.30;;;;;;4993946;28;20193;-72
2023/08/18 06:36:51;;;;;;;2.30;2.10;;;27.00;63.30;;;;;;4993990;28;20523;-72
2023/08/18 06:39:17;;;;;;;2.07;1.90;;;27.00;63.30;;;;;;4993888;28;20272;-72
2023/08/18 06:41:43;;;;;;;2.57;2.00;;;27.00;63.30;;;;;;4993821;28;20191;-73
2023/08/18 06:44:09;;;;;;;2.00;1.80;;;27.00;63.30;;;;;;4993866;28;20177;-71
2023/08/18 06:46:35;;;;;;;2.00;1.80;;;27.00;63.30;;;;;;4993806;28;20228;-72
2023/08/18 06:49:03;;;;;;;2.90;2.23;;;27.00;64.10;;;;;;4993744;28;20838;-72
2023/08/18 06:51:29;;;;;;;2.23;1.90;;;27.00;63.30;;;;;;4993590;28;20193;-71
2023/08/18 06:53:55;;;;;;;1.67;1.57;;;27.00;63.30;;;;;;4993860;28;20786;-71
2023/08/18 06:56:21;;;;;;;2.40;1.80;;;27.00;63.30;;;;;;5008597;28;20625;-73
2023/08/18 06:58:47;;;;;;;2.33;2.13;;;27.00;63.40;;;;;;5008864;28;20392;-71
2023/08/18 07:01:13;;;;;;;5.90;2.00;;;27.00;63.30;;;;;;4992516;28;20868;-72
2023/08/18 07:03:39;;;;;;;1.90;1.70;;;27.00;63.30;;;;;;4993347;28;20264;-72
2023/08/18 07:06:04;;;;;;;2.90;2.07;;;27.00;63.30;;;;;;4992031;28;20192;-72
2023/08/18 07:08:30;;;;;;;2.80;2.60;;;27.10;63.40;;;;;;4993343;28;20185;-72
2023/08/18 07:10:56;;;;;;;3.40;2.10;;;27.00;63.30;;;;;;4993275;28;20201;-73
2023/08/18 07:13:22;;;;;;;3.20;2.10;;;27.00;63.40;;;;;;4993272;28;20183;-71
2023/08/18 07:15:48;;;;;;;2.30;2.10;;;27.00;63.40;;;;;;4993124;28;20220;-72
2023/08/18 07:18:13;;;;;;;1.63;1.53;;;27.00;63.40;;;;;;4993225;28;20173;-71
2023/08/18 07:20:42;;;;;;;3.03;2.60;;;27.00;63.40;;;;;;4993139;28;20442;-72
2023/08/18 07:23:08;;;;;;;2.10;1.80;;;27.10;63.50;;;;;;5008093;28;20267;-72
2023/08/18 07:25:33;;;;;;;3.80;2.10;;;27.00;63.40;;;;;;4992973;28;20424;-71
2023/08/18 07:27:59;;;;;;;2.27;2.07;;;27.00;63.40;;;;;;4993119;28;20415;-71
2023/08/18 07:30:25;;;;;;;2.60;2.40;;;27.00;63.50;;;;;;4992942;28;20255;-72
2023/08/18 07:32:51;;;;;;;2.50;2.17;;;27.10;63.60;;;;;;4993003;28;20185;-72
2023/08/18 07:35:16;;;;;;;2.27;2.07;;;27.00;63.50;;;;;;4992839;28;20205;-72
2023/08/18 07:37:42;;;;;;;1.97;1.80;;;27.00;64.30;;;;;;4993066;28;20181;-72
2023/08/18 07:40:09;;;;;;;1.70;1.60;;;27.10;63.70;;;;;;4992806;28;20193;-73
2023/08/18 07:42:37;;;;;;;2.57;1.90;;;27.10;63.70;;;;;;4992748;28;20176;-70
2023/08/18 07:45:03;;;;;;;1.90;1.70;;;27.10;63.70;;;;;;4991484;28;20422;-72
2023/08/18 07:47:28;;;;;;;2.67;1.90;;;27.10;63.70;;;;;;4992972;28;20427;-73
2023/08/18 07:49:54;;;;;;;2.20;2.00;;;27.10;63.80;;;;;;4992705;28;20444;-72
2023/08/18 07:52:20;;;;;;;1.67;1.50;;;27.10;63.70;;;;;;4992769;28;20584;-72
2023/08/18 07:54:45;;;;;;;1.70;1.60;;;27.10;63.80;;;;;;4992618;28;20204;-72
2023/08/18 07:57:11;;;;;;;2.17;1.97;;;27.00;63.70;;;;;;4992312;28;20662;-72
2023/08/18 07:59:36;;;;;;;2.07;1.90;;;27.10;63.80;;;;;;4992563;28;20196;-71
2023/08/18 08:02:02;;;;;;;1.90;1.80;;;27.10;64.60;;;;;;4991319;28;20312;-73
2023/08/18 08:04:28;;;;;;;4.53;2.30;;;27.10;63.80;;;;;;4992621;28;20177;-72
2023/08/18 08:06:56;;;;;;;2.23;1.83;;;27.10;63.90;;;;;;4992649;28;20494;-73
2023/08/18 08:09:25;;;;;;;3.63;1.90;;;27.10;63.90;;;;;;4992605;28;20672;-73
2023/08/18 08:11:51;;;;;;;2.00;1.73;;;27.10;63.90;;;;;;4992414;28;20436;-74
2023/08/18 08:14:20;;;;;;;2.00;1.70;;;27.10;63.90;;;;;;4995838;28;20416;-72
2023/08/18 08:16:46;;;;;;;3.00;1.93;;;27.10;64.00;;;;;;4996561;28;20416;-72
2023/08/18 08:19:13;;;;;;;2.13;1.93;;;27.10;63.90;;;;;;4996529;28;20992;-73
2023/08/18 08:21:42;;;;;;;3.70;1.97;;;27.10;63.90;;;;;;4996414;28;20205;-72
2023/08/18 08:24:07;;;;;;;4.10;2.30;;;27.10;64.00;;;;;;4996362;28;20412;-73
2023/08/18 08:26:34;;;;;;;1.87;1.77;;;27.10;64.00;;;;;;4996708;28;20826;-73
2023/08/18 08:28:59;;;;;;;2.33;1.80;;;27.10;63.90;;;;;;4996310;28;20897;-73
2023/08/18 08:31:25;;;;;;;1.67;1.57;;;27.10;64.00;;;;;;4996227;28;20428;-73
2023/08/18 08:33:51;;;;;;;2.10;1.80;;;27.10;64.00;;;;;;4996232;28;20604;-73
2023/08/18 08:36:16;;;;;;;2.13;2.00;;;27.10;63.90;;;;;;4996227;28;20204;-73
2023/08/18 08:38:42;;;;;;;2.67;2.10;;;27.10;64.00;;;;;;4996145;28;20541;-73
2023/08/18 08:41:08;;;;;;;1.67;1.57;;;27.10;64.00;;;;;;4996017;28;20570;-72
2023/08/18 08:43:35;;;;;;;2.20;2.00;;;27.10;64.00;;;;;;4995937;28;20423;-72
2023/08/18 08:46:00;;;;;;;1.87;1.70;;;27.10;64.00;;;;;;4996053;28;20426;-73
2023/08/18 08:48:36;;;;;;;2.00;1.80;;;27.10;64.00;;;;;;4995995;28;20919;-73
2023/08/18 08:51:04;;;;;;;1.90;1.70;;;27.10;64.00;;;;;;4995939;28;20211;-73
2023/08/18 08:53:35;;;;;;;2.20;1.77;;;27.10;64.00;;;;;;4996132;28;20427;-72
2023/08/18 08:56:02;;;;;;;1.37;1.27;;;27.10;64.00;;;;;;4995715;28;20452;-73
2023/08/18 08:58:32;;;;;;;2.00;1.80;;;27.10;64.00;;;;;;4995822;28;20412;-73
2023/08/18 09:01:00;;;;;;;1.70;1.60;;;27.10;64.00;;;;;;4994262;28;20471;-73
2023/08/18 09:03:25;;;;;;;2.10;1.90;;;27.10;64.10;;;;;;4995662;28;20909;-73
2023/08/18 09:05:51;;;;;;;1.70;1.60;;;27.10;64.10;;;;;;4995544;28;20427;-73
2023/08/18 09:08:16;;;;;;;4.03;2.97;;;27.10;64.10;;;;;;4995471;28;20180;-72
2023/08/18 09:10:43;;;;;;;5.27;4.53;;;27.10;64.10;;;;;;4995460;28;20674;-73
2023/08/18 09:13:09;;;;;;;8.10;4.50;;;27.10;64.10;;;;;;4995712;28;20532;-72
2023/08/18 09:15:34;;;;;;;10.43;5.10;;;27.10;64.10;;;;;;4995877;28;20464;-73
2023/08/18 09:18:03;;;;;;;11.13;6.57;;;27.10;64.00;;;;;;4994409;28;20220;-72
2023/08/18 09:20:29;;;;;;;13.63;8.00;;;27.10;64.10;;;;;;4995720;28;20189;-73
2023/08/18 09:22:55;;;;;;;19.00;9.30;;;27.10;64.20;;;;;;4995656;28;20469;-73
2023/08/18 09:25:20;;;;;;;16.07;8.63;;;27.10;64.10;;;;;;4994470;28;20177;-73
2023/08/18 09:27:46;;;;;;;13.33;9.10;;;27.10;64.20;;;;;;5010222;28;20956;-73
2023/08/18 09:30:12;;;;;;;16.27;8.70;;;27.10;64.10;;;;;;4995055;28;20279;-72
2023/08/18 09:32:38;;;;;;;16.20;10.00;;;27.10;64.20;;;;;;4995111;28;20642;-72
2023/08/18 09:35:09;;;;;;;17.07;9.30;;;27.10;64.20;;;;;;4995147;28;20209;-73
2023/08/18 09:37:35;;;;;;;14.30;8.20;;;27.10;64.20;;;;;;4995083;28;20898;-72
2023/08/18 09:40:02;;;;;;;15.40;10.90;;;27.10;64.20;;;;;;4995070;28;20431;-72
2023/08/18 09:42:28;;;;;;;14.00;9.10;;;27.10;64.20;;;;;;4995028;28;20462;-72
2023/08/18 09:44:54;;;;;;;15.00;9.90;;;27.10;64.30;;;;;;5009941;28;20416;-73
2023/08/18 09:47:21;;;;;;;13.60;10.40;;;27.10;64.20;;;;;;4994975;28;20430;-73
2023/08/18 09:49:48;;;;;;;15.87;9.50;;;27.10;64.20;;;;;;4994801;28;20192;-73
2023/08/18 09:52:16;;;;;;;16.40;9.03;;;27.20;64.40;;;;;;4994820;28;20507;-73
2023/08/18 09:54:52;;;;;;;17.40;10.33;;;27.20;64.40;;;;;;4993378;28;20464;-72
2023/08/18 09:57:28;;;;;;;20.87;10.17;;;27.20;64.50;;;;;;4993351;28;20428;-72
2023/08/18 09:59:55;;;;;;;21.80;11.30;;;27.10;64.40;;;;;;4994593;28;20436;-73
2023/08/18 10:02:28;;;;;;;19.57;11.80;;;27.20;64.50;;;;;;4994568;28;20436;-73
2023/08/18 10:04:54;;;;;;;23.13;11.97;;;27.20;64.40;;;;;;4994749;28;20900;-73
2023/08/18 10:07:20;;;;;;;24.23;12.50;;;27.20;64.50;;;;;;4994543;28;20416;-72
2023/08/18 10:09:47;;;;;;;22.03;12.90;;;27.20;64.50;;;;;;4994476;28;20420;-73
2023/08/18 10:12:13;;;;;;;27.70;12.40;;;27.20;64.50;;;;;;4994429;28;20428;-73
2023/08/18 10:14:39;;;;;;;28.43;12.77;;;27.20;64.50;;;;;;4994320;28;20463;-73
2023/08/18 10:17:06;;;;;;;20.53;11.90;;;27.20;64.40;;;;;;4993665;28;20173;-73
2023/08/18 10:19:51;;;;;;;22.97;12.50;;;27.20;64.40;;;;;;4994063;28;20827;-73
2023/08/18 10:22:19;;;;;;;23.10;11.80;;;27.20;64.50;;;;;;4993537;28;20909;-73
2023/08/18 10:24:46;;;;;;;24.83;12.33;;;27.20;64.50;;;;;;4994165;28;20408;-72
2023/08/18 10:27:33;;;;;;;20.87;11.47;;;27.20;64.50;;;;;;4994488;28;20489;-73
2023/08/18 10:30:26;;;;;;;19.53;12.97;;;27.20;64.50;;;;;;4986790;28;20447;-73
2023/08/18 10:32:54;;;;;;;22.40;11.80;;;27.20;64.60;;;;;;4994148;28;20452;-73
2023/08/18 10:35:21;;;;;;;19.73;12.50;;;27.20;64.60;;;;;;4993869;28;20980;-71
2023/08/18 10:37:51;;;;;;;22.27;12.13;;;27.20;64.60;;;;;;4994219;28;20471;-72
2023/08/18 10:40:37;;;;;;;15.03;10.17;;;27.20;64.60;;;;;;4993787;28;20526;-71
2023/08/18 10:43:07;;;;;;;22.03;11.47;;;27.20;64.60;;;;;;4993901;28;20393;-72
2023/08/18 10:45:33;;;;;;;19.50;10.37;;;27.20;64.60;;;;;;4993794;28;20418;-71
2023/08/18 10:48:00;;;;;;;19.60;11.17;;;27.20;64.60;;;;;;4993746;28;20408;-71
2023/08/18 10:50:28;;;;;;;18.60;10.90;;;27.20;64.60;;;;;;4993441;28;20929;-71
2023/08/18 10:52:56;;;;;;;19.30;10.13;;;27.20;64.60;;;;;;4993569;28;20491;-71
2023/08/18 10:55:25;;;;;;;14.93;9.93;;;27.20;64.50;;;;;;4993444;28;20452;-72
2023/08/18 10:57:52;;;;;;;22.00;11.33;;;27.20;64.50;;;;;;4999509;28;20427;-71
2023/08/18 11:00:18;;;;;;;18.70;9.67;;;27.20;64.60;;;;;;5012888;28;20538;-72
2023/08/18 11:02:51;;;;;;;17.67;10.50;;;27.20;64.50;;;;;;5013056;28;20470;-72
2023/08/18 11:05:18;;;;;;;18.53;10.73;;;27.20;64.50;;;;;;5013060;28;20404;-73
2023/08/18 11:07:44;;;;;;;18.20;10.70;;;27.20;64.60;;;;;;5013127;28;20415;-73
2023/08/18 11:10:19;;;;;;;19.00;10.70;;;27.20;64.50;;;;;;5012849;28;20482;-73
2023/08/18 11:12:46;;;;;;;14.47;9.20;;;27.20;64.60;;;;;;5011489;28;20541;-73
2023/08/18 11:15:13;;;;;;;20.30;10.47;;;27.20;64.50;;;;;;5012737;28;20459;-73
2023/08/18 11:17:40;;;;;;;16.37;10.10;;;27.20;64.50;;;;;;5011579;28;20465;-73
2023/08/18 11:20:07;;;;;;;17.53;11.53;;;27.20;64.50;;;;;;5012749;28;20470;-73
2023/08/18 11:22:36;;;;;;;19.53;10.03;;;27.20;64.50;;;;;;5012741;28;20810;-72
2023/08/18 11:25:04;;;;;;;18.43;10.37;;;27.20;64.50;;;;;;5012744;28;20499;-73
2023/08/18 11:27:34;;;;;;;15.93;9.80;;;27.20;64.40;;;;;;5012713;28;20512;-73
2023/08/18 11:29:59;;;;;;;14.53;9.97;;;27.20;64.40;;;;;;5011308;28;20447;-73
2023/08/18 11:32:26;;;;;;;17.23;10.40;;;27.20;64.40;;;;;;5012476;28;20465;-73
2023/08/18 11:34:52;;;;;;;13.10;9.00;;;27.20;64.40;;;;;;5012332;28;20739;-72
2023/08/18 11:37:24;;;;;;;18.57;9.93;;;27.30;64.50;;;;;;5012596;28;20530;-73
2023/08/18 11:39:50;;;;;;;21.20;9.23;;;27.30;64.50;;;;;;5012492;28;20438;-72
2023/08/18 11:42:17;;;;;;;15.60;9.47;;;27.20;64.40;;;;;;5012517;28;20892;-73
2023/08/18 11:44:44;;;;;;;17.50;9.73;;;27.30;64.40;;;;;;5012436;28;20214;-73
2023/08/18 11:47:09;;;;;;;14.60;8.27;;;27.30;64.50;;;;;;5012504;28;20485;-72
2023/08/18 11:49:35;;;;;;;17.27;9.50;;;27.30;64.50;;;;;;5012534;28;20412;-73
2023/08/18 11:52:06;;;;;;;16.77;9.90;;;27.30;64.50;;;;;;5012372;28;20641;-73
2023/08/18 11:54:34;;;;;;;14.83;9.50;;;27.20;64.40;;;;;;5012564;28;20403;-72
2023/08/18 11:57:00;;;;;;;18.97;9.50;;;27.30;64.40;;;;;;5012229;28;20908;-73
2023/08/18 11:59:26;;;;;;;14.27;8.77;;;27.30;64.50;;;;;;5012225;28;20410;-72
2023/08/18 12:01:57;;;;;;;13.23;8.70;;;27.30;64.50;;;;;;5012152;28;20575;-73
2023/08/18 12:04:27;;;;;;;14.77;9.80;;;27.30;64.50;;;;;;5012244;28;20168;-72
2023/08/18 12:06:53;;;;;;;12.43;8.60;;;27.30;64.40;;;;;;5012252;28;20806;-73
2023/08/18 12:09:19;;;;;;;16.27;9.70;;;27.30;64.50;;;;;;5012129;28;20510;-72
2023/08/18 12:11:45;;;;;;;15.10;9.10;;;27.30;64.40;;;;;;5011372;28;20443;-73
2023/08/18 12:14:11;;;;;;;16.10;9.83;;;27.30;64.40;;;;;;5010808;28;20414;-73
2023/08/18 12:16:37;;;;;;;18.60;10.93;;;27.20;64.30;;;;;;5012039;28;20463;-72
2023/08/18 12:19:05;;;;;;;14.43;9.00;;;27.30;64.40;;;;;;5012336;28;20177;-73
2023/08/18 12:21:37;;;;;;;17.40;9.57;;;27.30;64.40;;;;;;5012024;28;20196;-72
2023/08/18 12:24:04;;;;;;;13.73;9.30;;;27.30;64.40;;;;;;5010895;28;20423;-72
2023/08/18 12:26:34;;;;;;;15.90;9.50;;;27.20;64.30;;;;;;5011948;28;20932;-73
2023/08/18 12:29:03;;;;;;;12.23;8.13;;;27.30;64.30;;;;;;5011810;28;20442;-72
2023/08/18 12:31:30;;;;;;;13.87;8.00;;;27.30;64.40;;;;;;5011883;28;20439;-73
2023/08/18 12:33:55;;;;;;;12.20;8.20;;;27.30;64.40;;;;;;5012178;28;20935;-71
2023/08/18 12:36:21;;;;;;;15.20;9.30;;;27.30;64.30;;;;;;5011743;28;20463;-72
2023/08/18 12:38:46;;;;;;;14.17;8.10;;;27.20;64.30;;;;;;5011767;28;20176;-73
2023/08/18 12:41:14;;;;;;;11.13;8.00;;;27.30;64.40;;;;;;5011709;28;20666;-72